Time;durP1;ratioP1;P1;durP2;ratioP2;P2;SDS_P1;SDS_P2;PMS_P1;PMS_P2;Temp;Humidity;BMP_temperature;BMP_pressure;BME280_temperature;BME280_humidity;BME280_pressure;Samples;Min_cycle;Max_cycle;Signal;HPM_P1;HPM_P2
2021/08/21 00:01:58;47807.00;0.16;83.39;0.00;0.00;0.62;;;;;23.10;1.00;;;;;;2280108;60;949;-86
2021/08/21 00:04:25;0.00;0.00;0.62;0.00;0.00;0.62;;;;;22.70;1.00;;;;;;2280091;61;1005;-85
2021/08/21 00:06:52;38960.00;0.13;68.09;0.00;0.00;0.62;;;;;22.70;1.00;;;;;;2273400;61;1923;-85
2021/08/21 00:09:19;54206.00;0.18;94.46;0.00;0.00;0.62;;;;;22.90;1.00;;;;;;2280070;61;1008;-86
2021/08/21 00:11:46;0.00;0.00;0.62;0.00;0.00;0.62;;;;;23.00;1.00;;;;;;2273442;61;974;-85
2021/08/21 00:14:13;54247.00;0.18;94.53;0.00;0.00;0.62;;;;;23.10;1.00;;;;;;2279982;61;1465;-85
2021/08/21 00:16:40;0.00;0.00;0.62;0.00;0.00;0.62;;;;;23.20;1.00;;;;;;2280036;60;967;-84
2021/08/21 00:19:08;80282.00;0.27;139.52;0.00;0.00;0.62;;;;;23.30;1.00;;;;;;2273401;61;933;-85
2021/08/21 00:21:35;0.00;0.00;0.62;0.00;0.00;0.62;;;;;23.20;1.00;;;;;;2280447;61;1159;-85
2021/08/21 00:24:02;38920.00;0.13;68.02;0.00;0.00;0.62;;;;;23.30;1.00;;;;;;2280414;61;1632;-84
2021/08/21 00:26:29;0.00;0.00;0.62;0.00;0.00;0.62;;;;;23.20;1.00;;;;;;2280459;61;2001;-85
2021/08/21 00:28:56;0.00;0.00;0.62;0.00;0.00;0.62;;;;;23.20;1.00;;;;;;2280490;61;1083;-86
2021/08/21 00:31:23;0.00;0.00;0.62;0.00;0.00;0.62;;;;;23.30;1.00;;;;;;2280044;61;1128;-85
2021/08/21 00:33:50;0.00;0.00;0.62;0.00;0.00;0.62;;;;;23.30;1.00;;;;;;2280438;61;1332;-84
2021/08/21 00:36:19;26057.00;0.09;45.76;0.00;0.00;0.62;;;;;23.30;1.00;;;;;;2276548;61;964;-85
2021/08/21 00:38:45;0.00;0.00;0.62;0.00;0.00;0.62;;;;;23.00;1.00;;;;;;2280027;61;1175;-85
2021/08/21 00:41:12;0.00;0.00;0.62;0.00;0.00;0.62;;;;;23.20;1.00;;;;;;2279986;60;965;-85
2021/08/21 00:43:40;41729.00;0.14;72.88;0.00;0.00;0.62;;;;;23.30;1.00;;;;;;2273281;61;1433;-85
2021/08/21 00:46:07;0.00;0.00;0.62;0.00;0.00;0.62;;;;;23.40;1.00;;;;;;2279959;60;2000;-85
2021/08/21 00:48:34;0.00;0.00;0.62;0.00;0.00;0.62;;;;;23.30;1.00;;;;;;2279928;61;1016;-85
2021/08/21 00:51:02;2726.00;0.01;5.34;0.00;0.00;0.62;;;;;22.90;1.00;;;;;;2280021;61;1008;-85
2021/08/21 00:53:32;33598.00;0.11;58.81;0.00;0.00;0.62;;;;;22.80;1.00;;;;;;2273293;61;1343;-85
2021/08/21 00:55:59;0.00;0.00;0.62;0.00;0.00;0.62;;;;;22.40;1.00;;;;;;2280012;61;943;-85
2021/08/21 00:58:27;0.00;0.00;0.62;0.00;0.00;0.62;;;;;22.20;1.00;;;;;;2279928;60;1152;-86
2021/08/21 01:00:54;0.00;0.00;0.62;0.00;0.00;0.62;;;;;22.40;1.00;;;;;;2283303;60;966;-85
2021/08/21 01:03:21;16319.00;0.05;28.90;0.00;0.00;0.62;;;;;22.60;1.00;;;;;;2276579;60;1411;-85
2021/08/21 01:05:53;28748.00;0.10;50.42;0.00;0.00;0.62;;;;;22.40;1.00;;;;;;2283275;60;1919;-85
2021/08/21 01:08:20;135161.00;0.45;234.23;0.00;0.00;0.62;;;;;21.80;1.00;;;;;;2271748;61;1003;-85
2021/08/21 01:10:49;141431.00;0.47;245.04;0.00;0.00;0.62;;;;;21.50;1.00;;;;;;2265109;61;955;-86
2021/08/21 01:13:16;0.00;0.00;0.62;0.00;0.00;0.62;;;;;21.40;1.00;;;;;;2268367;61;1401;-85
2021/08/21 01:15:43;87249.00;0.29;151.56;19977.00;0.07;35.23;;;;;21.20;1.00;;;;;;2265118;61;970;-85
2021/08/21 01:18:11;0.00;0.00;0.62;0.00;0.00;0.62;;;;;21.00;1.00;;;;;;2265062;61;1001;-86
2021/08/21 01:20:38;273833.00;0.91;472.93;91870.00;0.31;159.54;;;;;20.90;1.00;;;;;;2267715;61;1009;-85
2021/08/21 01:23:06;25363.00;0.08;44.56;0.00;0.00;0.62;;;;;21.10;1.00;;;;;;2264287;61;1355;-85
2021/08/21 01:25:35;211969.00;0.71;366.52;21390.00;0.07;37.68;;;;;21.30;1.00;;;;;;2269289;60;1997;-86
2021/08/21 01:28:04;0.00;0.00;0.62;0.00;0.00;0.62;;;;;21.40;1.00;;;;;;2273145;61;1020;-86
2021/08/21 01:30:31;0.00;0.00;0.62;0.00;0.00;0.62;;;;;21.60;1.00;;;;;;2269845;60;984;-86
2021/08/21 01:32:58;0.00;0.00;0.62;0.00;0.00;0.62;;;;;21.30;1.00;;;;;;2273018;60;1374;-86
2021/08/21 01:35:25;94370.00;0.31;163.85;24874.00;0.08;43.71;;;;;20.80;1.00;;;;;;2273089;60;974;-86
2021/08/21 01:37:51;37126.00;0.12;64.92;0.00;0.00;0.62;;;;;21.20;1.00;;;;;;2273200;60;960;-86
2021/08/21 01:40:18;0.00;0.00;0.62;0.00;0.00;0.62;;;;;21.40;1.00;;;;;;2276503;61;1054;-85
2021/08/21 01:42:45;0.00;0.00;0.62;0.00;0.00;0.62;;;;;21.40;1.00;;;;;;2276492;60;1285;-85
2021/08/21 01:45:14;0.00;0.00;0.62;0.00;0.00;0.62;;;;;21.30;1.00;;;;;;2273155;61;962;-86
2021/08/21 01:47:43;0.00;0.00;0.62;0.00;0.00;0.62;;;;;21.50;1.00;;;;;;2280616;61;1981;-86
2021/08/21 01:50:17;0.00;0.00;0.62;0.00;0.00;0.62;;;;;21.90;1.00;;;;;;2280555;60;1094;-85
2021/08/21 01:52:45;0.00;0.00;0.62;0.00;0.00;0.62;;;;;22.10;1.00;;;;;;2277164;61;1449;-86
2021/08/21 01:55:13;0.00;0.00;0.62;0.00;0.00;0.62;;;;;21.70;1.00;;;;;;2280561;61;1000;-85
2021/08/21 01:57:42;248676.00;0.83;429.67;112423.00;0.37;195.01;;;;;21.80;1.00;;;;;;2280508;61;1050;-85
2021/08/21 02:00:11;15345.00;0.05;27.21;0.00;0.00;0.62;;;;;21.50;1.00;;;;;;2277190;60;1192;-86
2021/08/21 02:02:39;141496.00;0.47;245.15;0.00;0.00;0.62;;;;;21.50;1.00;;;;;;2280474;60;1295;-85
2021/08/21 02:05:08;186449.00;0.62;322.59;19301.00;0.06;34.06;;;;;21.60;1.00;;;;;;2280443;61;1131;-86
2021/08/21 02:07:35;20225.00;0.07;35.66;0.00;0.00;0.62;;;;;21.50;1.00;;;;;;2277093;61;2010;-85
2021/08/21 02:10:02;13438.00;0.04;23.91;0.00;0.00;0.62;;;;;21.20;1.00;;;;;;2277128;61;1044;-86
2021/08/21 02:12:29;40308.00;0.13;70.42;0.00;0.00;0.62;;;;;20.70;1.00;;;;;;2280901;61;1312;-85
2021/08/21 02:14:56;0.00;0.00;0.62;0.00;0.00;0.62;;;;;20.40;1.00;;;;;;2280458;61;993;-86
2021/08/21 02:17:23;81837.00;0.27;142.21;0.00;0.00;0.62;;;;;20.10;1.00;;;;;;2273766;61;1087;-85
2021/08/21 02:19:51;18990.00;0.06;33.52;0.00;0.00;0.62;;;;;19.90;1.00;;;;;;2280429;61;1065;-86
2021/08/21 02:22:18;0.00;0.00;0.62;0.00;0.00;0.62;;;;;20.00;1.00;;;;;;2277118;61;1459;-85
2021/08/21 02:24:52;0.00;0.00;0.62;0.00;0.00;0.62;;;;;19.80;1.00;;;;;;2276942;61;1012;-84
2021/08/21 02:27:22;51598.00;0.17;89.95;0.00;0.00;0.62;;;;;19.70;1.00;;;;;;2283766;60;2006;-84
2021/08/21 02:29:50;3899.00;0.01;7.38;0.00;0.00;0.62;;;;;19.80;1.00;;;;;;2283740;60;945;-84
2021/08/21 02:32:17;0.00;0.00;0.62;0.00;0.00;0.62;;;;;19.80;1.00;;;;;;2280438;61;1437;-85
2021/08/21 02:34:44;19415.00;0.06;34.26;0.00;0.00;0.62;;;;;19.90;1.00;;;;;;2280551;61;972;-85
2021/08/21 02:37:14;72065.00;0.24;125.33;0.00;0.00;0.62;;;;;20.00;1.00;;;;;;2280273;61;1101;-86
2021/08/21 02:39:43;131329.00;0.44;227.62;0.00;0.00;0.62;;;;;20.20;1.00;;;;;;2276959;60;1101;-85
2021/08/21 02:42:11;346301.00;1.15;597.50;106560.00;0.36;184.89;;;;;20.40;1.00;;;;;;2280354;61;1431;-86
2021/08/21 02:44:38;144931.00;0.48;251.07;42945.00;0.14;74.98;;;;;20.40;1.00;;;;;;2280140;60;972;-85
2021/08/21 02:47:06;0.00;0.00;0.62;0.00;0.00;0.62;;;;;20.30;1.00;;;;;;2280371;60;2032;-85
2021/08/21 02:49:34;31172.00;0.10;54.61;0.00;0.00;0.62;;;;;20.30;1.00;;;;;;2280555;61;1185;-85
2021/08/21 02:52:01;0.00;0.00;0.62;0.00;0.00;0.62;;;;;20.40;1.00;;;;;;2280768;61;1371;-86
2021/08/21 02:54:30;0.00;0.00;0.62;0.00;0.00;0.62;;;;;20.20;1.00;;;;;;2280362;61;1124;-86
2021/08/21 02:56:57;0.00;0.00;0.62;0.00;0.00;0.62;;;;;20.40;1.00;;;;;;2280247;61;1080;-86
2021/08/21 02:59:24;22307.00;0.07;39.26;0.00;0.00;0.62;;;;;20.70;1.00;;;;;;2283575;60;932;-85
2021/08/21 03:01:51;5754.00;0.02;10.59;0.00;0.00;0.62;;;;;20.60;1.00;;;;;;2280280;61;953;-86
2021/08/21 03:04:18;112657.00;0.38;195.41;16427.00;0.05;29.08;;;;;20.70;1.00;;;;;;2280138;61;1356;-86
2021/08/21 03:06:45;64841.00;0.22;112.84;0.00;0.00;0.62;;;;;20.80;1.00;;;;;;2280318;61;1915;-85
2021/08/21 03:09:12;56594.00;0.19;98.59;0.00;0.00;0.62;;;;;20.60;1.00;;;;;;2280323;60;982;-86
2021/08/21 03:11:40;57671.00;0.19;100.45;0.00;0.00;0.62;;;;;20.90;1.00;;;;;;2276958;60;962;-86
2021/08/21 03:14:07;222500.00;0.74;384.65;0.00;0.00;0.62;;;;;21.30;1.00;;;;;;2280730;61;1446;-85
2021/08/21 03:16:34;0.00;0.00;0.62;0.00;0.00;0.62;;;;;21.30;1.00;;;;;;2280318;60;971;-86
2021/08/21 03:19:01;10649.00;0.04;19.07;0.00;0.00;0.62;;;;;21.20;1.00;;;;;;2279976;61;1022;-85
2021/08/21 03:21:28;3843.00;0.01;7.28;0.00;0.00;0.62;;;;;21.20;1.00;;;;;;2273174;61;1023;-86
2021/08/21 03:23:54;47169.00;0.16;82.29;0.00;0.00;0.62;;;;;21.30;1.00;;;;;;2280247;61;1269;-85
2021/08/21 03:26:21;9210.00;0.03;16.58;0.00;0.00;0.62;;;;;21.10;1.00;;;;;;2280122;61;1990;-85
2021/08/21 03:28:50;193698.00;0.65;335.08;59848.00;0.20;104.21;;;;;20.80;1.00;;;;;;2280077;61;1065;-86
2021/08/21 03:31:17;25143.00;0.08;44.18;0.00;0.00;0.62;;;;;20.50;1.00;;;;;;2273465;61;1010;-86
2021/08/21 03:33:44;0.00;0.00;0.62;0.00;0.00;0.62;;;;;20.50;1.00;;;;;;2280127;61;1464;-85
2021/08/21 03:36:11;228107.00;0.76;394.29;60414.00;0.20;105.19;;;;;20.40;1.00;;;;;;2280604;61;983;-85
2021/08/21 03:38:38;0.00;0.00;0.62;0.00;0.00;0.62;;;;;20.30;1.00;;;;;;2276857;61;1180;-85
2021/08/21 03:41:05;17341.00;0.06;30.67;0.00;0.00;0.62;;;;;20.30;1.00;;;;;;2276811;60;1028;-86
2021/08/21 03:46:37;237011.00;0.79;409.61;13264.00;0.04;23.60;;;;;20.40;1.00;;;;;;2279888;61;1996;-86
2021/08/21 03:49:06;200196.00;0.67;346.26;0.00;0.00;0.62;;;;;20.40;1.00;;;;;;2279108;60;1394;-85
2021/08/21 03:51:33;362974.00;1.21;626.16;118429.00;0.39;205.37;;;;;20.10;1.00;;;;;;2277529;61;1061;-86
2021/08/21 03:54:00;55569.00;0.19;96.82;0.00;0.00;0.62;;;;;20.00;1.00;;;;;;2280796;60;1305;-85
2021/08/21 03:56:27;24655.00;0.08;43.33;0.00;0.00;0.62;;;;;20.20;1.00;;;;;;2277560;61;947;-86
2021/08/21 03:58:54;188727.00;0.63;326.52;48841.00;0.16;85.18;;;;;20.20;1.00;;;;;;2277539;60;995;-85
2021/08/21 04:01:21;0.00;0.00;0.62;0.00;0.00;0.62;;;;;20.40;1.00;;;;;;2280869;60;947;-86
2021/08/21 04:03:48;120025.00;0.40;208.13;0.00;0.00;0.62;;;;;20.30;1.00;;;;;;2284657;60;1353;-86
2021/08/21 04:06:16;0.00;0.00;0.62;0.00;0.00;0.62;;;;;20.30;1.00;;;;;;2276800;60;1990;-84
2021/08/21 04:08:43;0.00;0.00;0.62;0.00;0.00;0.62;;;;;20.00;1.00;;;;;;2280796;60;1059;-84
2021/08/21 04:11:10;92783.00;0.31;161.11;21116.00;0.07;37.20;;;;;19.70;1.00;;;;;;2284415;60;998;-85
2021/08/21 04:13:38;0.00;0.00;0.62;0.00;0.00;0.62;;;;;19.70;1.00;;;;;;2280633;60;1345;-85
2021/08/21 04:16:05;127096.00;0.42;220.32;15271.00;0.05;27.08;;;;;19.80;1.00;;;;;;2277511;60;959;-86
2021/08/21 04:18:32;0.00;0.00;0.62;0.00;0.00;0.62;;;;;20.10;1.00;;;;;;2277474;61;1014;-86
2021/08/21 04:20:59;12028.00;0.04;21.46;0.00;0.00;0.62;;;;;19.90;1.00;;;;;;2277380;60;968;-85
2021/08/21 04:23:27;0.00;0.00;0.62;0.00;0.00;0.62;;;;;19.90;1.00;;;;;;2277408;60;1435;-86
2021/08/21 04:25:59;0.00;0.00;0.62;0.00;0.00;0.62;;;;;20.00;1.00;;;;;;2284135;60;1023;-86
2021/08/21 04:28:26;0.00;0.00;0.62;0.00;0.00;0.62;;;;;20.20;1.00;;;;;;2280822;60;2013;-86
2021/08/21 04:30:53;150174.00;0.50;260.11;39937.00;0.13;69.78;;;;;19.70;1.00;;;;;;2280459;61;1009;-83
2021/08/21 04:33:20;160723.00;0.54;278.29;31094.00;0.10;54.48;;;;;19.60;1.00;;;;;;2280407;60;1395;-84
2021/08/21 04:35:47;0.00;0.00;0.62;0.00;0.00;0.62;;;;;19.30;1.00;;;;;;2277192;60;1025;-83
2021/08/21 04:38:14;28716.00;0.10;50.36;0.00;0.00;0.62;;;;;19.30;1.00;;;;;;2284107;60;1164;-85
2021/08/21 04:40:44;0.00;0.00;0.62;0.00;0.00;0.62;;;;;19.40;1.00;;;;;;2284588;60;1006;-85
2021/08/21 04:43:11;0.00;0.00;0.62;0.00;0.00;0.62;;;;;19.70;1.00;;;;;;2277398;60;1309;-86
2021/08/21 04:45:38;0.00;0.00;0.62;0.00;0.00;0.62;;;;;19.90;1.00;;;;;;2280739;60;954;-85
2021/08/21 04:48:05;220404.00;0.73;381.04;51952.00;0.17;90.56;;;;;20.20;1.00;;;;;;2277120;60;2001;-85
2021/08/21 04:50:35;17354.00;0.06;30.69;0.00;0.00;0.62;;;;;20.00;1.00;;;;;;2277312;60;1059;-86
2021/08/21 04:53:02;0.00;0.00;0.62;0.00;0.00;0.62;;;;;20.20;1.00;;;;;;2273922;60;1404;-85
2021/08/21 04:55:29;5903.00;0.02;10.85;0.00;0.00;0.62;;;;;20.30;1.00;;;;;;2277372;60;980;-86
2021/08/21 04:57:57;0.00;0.00;0.62;0.00;0.00;0.62;;;;;20.20;1.00;;;;;;2277252;60;985;-85
2021/08/21 05:00:25;34717.00;0.12;60.75;0.00;0.00;0.62;;;;;20.00;1.00;;;;;;2280677;60;1008;-85
2021/08/21 05:02:53;4871.00;0.02;9.06;0.00;0.00;0.62;;;;;20.20;1.00;;;;;;2277125;60;1336;-85
2021/08/21 05:05:20;73131.00;0.24;127.17;0.00;0.00;0.62;;;;;20.30;1.00;;;;;;2273941;60;968;-85
2021/08/21 05:07:48;392963.00;1.31;677.71;192356.00;0.64;332.76;;;;;20.30;1.00;;;;;;2284389;60;1980;-85
2021/08/21 05:10:16;278333.00;0.93;480.67;65298.00;0.22;113.63;;;;;20.80;1.00;;;;;;2277254;60;1013;-84
2021/08/21 05:12:44;0.00;0.00;0.62;0.00;0.00;0.62;;;;;21.00;1.00;;;;;;2273785;60;1407;-85
2021/08/21 05:15:13;0.00;0.00;0.62;0.00;0.00;0.62;;;;;21.30;1.00;;;;;;2283949;60;1023;-86
2021/08/21 05:17:40;0.00;0.00;0.62;0.00;0.00;0.62;;;;;21.30;1.00;;;;;;2283979;60;1026;-86
2021/08/21 05:20:14;0.00;0.00;0.62;0.00;0.00;0.62;;;;;21.40;1.00;;;;;;2283882;60;975;-86
2021/08/21 05:22:47;0.00;0.00;0.62;0.00;0.00;0.62;;;;;21.50;1.00;;;;;;2280879;60;1427;-85
2021/08/21 05:25:15;183068.00;0.61;316.77;18122.00;0.06;32.02;;;;;21.90;1.00;;;;;;2281235;60;1017;-86
2021/08/21 05:27:43;0.00;0.00;0.62;0.00;0.00;0.62;;;;;22.00;1.00;;;;;;2277915;60;1913;-85
2021/08/21 05:30:13;260697.00;0.87;450.35;8174.00;0.03;14.79;;;;;22.00;1.00;;;;;;2284504;60;977;-85
2021/08/21 05:32:39;0.00;0.00;0.62;0.00;0.00;0.62;;;;;21.90;1.00;;;;;;2277715;60;1368;-85
2021/08/21 05:35:07;0.00;0.00;0.62;0.00;0.00;0.62;;;;;22.10;1.00;;;;;;2281235;60;989;-85
2021/08/21 05:37:34;91541.00;0.31;158.97;17673.00;0.06;31.24;;;;;22.60;1.00;;;;;;2281267;60;999;-85
2021/08/21 05:40:01;0.00;0.00;0.62;0.00;0.00;0.62;;;;;22.70;1.00;;;;;;2281242;60;1002;-85
2021/08/21 05:42:28;0.00;0.00;0.62;0.00;0.00;0.62;;;;;22.50;1.00;;;;;;2280415;60;1304;-84
2021/08/21 05:44:55;4064.00;0.01;7.66;0.00;0.00;0.62;;;;;23.10;1.00;;;;;;2273725;60;1015;-86
2021/08/21 05:47:23;41281.00;0.14;72.10;0.00;0.00;0.62;;;;;23.90;1.00;;;;;;2280289;60;1987;-84
2021/08/21 05:49:50;0.00;0.00;0.62;0.00;0.00;0.62;;;;;24.60;1.00;;;;;;2273695;60;1002;-84
2021/08/21 05:52:17;32144.00;0.11;56.29;0.00;0.00;0.62;;;;;25.10;1.00;;;;;;2273640;60;1564;-85
2021/08/21 05:54:43;20845.00;0.07;36.73;0.00;0.00;0.62;;;;;25.20;1.00;;;;;;2273724;60;979;-84
2021/08/21 05:57:10;0.00;0.00;0.62;0.00;0.00;0.62;;;;;25.30;1.00;;;;;;2272237;61;1043;-84
2021/08/21 05:59:37;31217.00;0.10;54.69;0.00;0.00;0.62;;;;;25.00;1.00;;;;;;2266363;61;1030;-85
2021/08/21 06:02:04;0.00;0.00;0.62;0.00;0.00;0.62;;;;;24.90;1.00;;;;;;2279756;60;1390;-84
2021/08/21 06:04:33;0.00;0.00;0.62;0.00;0.00;0.62;;;;;24.60;1.00;;;;;;2273618;61;1012;-84
2021/08/21 06:07:00;176424.00;0.59;305.33;49239.00;0.16;85.87;;;;;24.50;1.00;;;;;;2273648;60;2013;-84
2021/08/21 06:09:27;81852.00;0.27;142.24;0.00;0.00;0.62;;;;;24.50;1.00;;;;;;2276928;60;999;-84
2021/08/21 06:11:53;52765.00;0.18;91.97;0.00;0.00;0.62;;;;;24.80;1.00;;;;;;2273502;60;1057;-85
2021/08/21 06:14:20;136438.00;0.45;236.43;37780.00;0.13;66.05;;;;;24.80;1.00;;;;;;2277379;60;1442;-85
2021/08/21 06:16:47;43830.00;0.15;76.51;0.00;0.00;0.62;;;;;24.70;1.00;;;;;;2277683;60;986;-85
2021/08/21 06:19:14;0.00;0.00;0.62;0.00;0.00;0.62;;;;;25.10;1.00;;;;;;2280960;60;1047;-85
2021/08/21 06:21:44;0.00;0.00;0.62;0.00;0.00;0.62;;;;;25.40;1.00;;;;;;2281124;60;1007;-85
2021/08/21 06:24:11;57934.00;0.19;100.91;0.00;0.00;0.62;;;;;25.70;1.00;;;;;;2277666;61;1309;-84
2021/08/21 06:26:38;112685.00;0.38;195.46;0.00;0.00;0.62;;;;;25.40;1.00;;;;;;2281042;60;1014;-85
2021/08/21 06:29:05;63712.00;0.21;110.89;0.00;0.00;0.62;;;;;25.40;1.00;;;;;;2281095;60;2013;-84
2021/08/21 06:31:32;0.00;0.00;0.62;0.00;0.00;0.62;;;;;25.20;1.00;;;;;;2284971;60;1000;-84
2021/08/21 06:33:59;8003.00;0.03;14.49;0.00;0.00;0.62;;;;;25.30;1.00;;;;;;2284709;60;1333;-85
2021/08/21 06:36:26;221163.00;0.74;382.34;62916.00;0.21;109.52;;;;;25.50;1.00;;;;;;2281124;60;1063;-86
2021/08/21 06:38:54;184803.00;0.62;319.76;51949.00;0.17;90.56;;;;;26.10;1.00;;;;;;2277779;61;950;-86
2021/08/21 06:41:21;64567.00;0.22;112.37;0.00;0.00;0.62;;;;;26.80;1.00;;;;;;2284453;60;968;-86
2021/08/21 06:43:48;11327.00;0.04;20.25;0.00;0.00;0.62;;;;;27.40;1.00;;;;;;2284360;60;1458;-86
2021/08/21 06:46:15;30264.00;0.10;53.04;0.00;0.00;0.62;;;;;27.50;1.00;;;;;;2275839;60;1059;-85
2021/08/21 06:48:42;0.00;0.00;0.62;0.00;0.00;0.62;;;;;28.00;1.00;;;;;;2284764;60;2002;-85
2021/08/21 06:51:09;0.00;0.00;0.62;0.00;0.00;0.62;;;;;28.10;1.00;;;;;;2284848;60;1062;-85
2021/08/21 06:53:36;0.00;0.00;0.62;0.00;0.00;0.62;;;;;28.00;1.00;;;;;;2284410;60;1289;-85
2021/08/21 06:56:05;59709.00;0.20;103.97;0.00;0.00;0.62;;;;;28.40;1.00;;;;;;2277500;60;1002;-85
2021/08/21 06:58:32;0.00;0.00;0.62;0.00;0.00;0.62;;;;;28.50;1.00;;;;;;2284740;60;1135;-85
2021/08/21 07:00:58;10373.00;0.03;18.60;0.00;0.00;0.62;;;;;28.60;1.00;;;;;;2284780;60;1071;-85
2021/08/21 07:03:26;0.00;0.00;0.62;0.00;0.00;0.62;;;;;28.30;1.00;;;;;;2284716;60;1289;-84
2021/08/21 07:05:53;0.00;0.00;0.62;0.00;0.00;0.62;;;;;28.60;1.00;;;;;;2284782;60;1142;-85
2021/08/21 07:08:20;0.00;0.00;0.62;0.00;0.00;0.62;;;;;29.00;1.00;;;;;;2284746;60;2000;-85
2021/08/21 07:10:47;0.00;0.00;0.62;0.00;0.00;0.62;;;;;29.20;1.00;;;;;;2284766;60;1291;-85
2021/08/21 07:13:15;0.00;0.00;0.62;0.00;0.00;0.62;;;;;29.70;1.00;;;;;;2284528;60;1315;-86
2021/08/21 07:15:42;29692.00;0.10;52.05;0.00;0.00;0.62;;;;;30.50;1.00;;;;;;2284306;60;1121;-87
2021/08/21 07:18:09;28513.00;0.10;50.01;0.00;0.00;0.62;;;;;30.30;1.00;;;;;;2284269;60;1059;-84
2021/08/21 07:20:36;0.00;0.00;0.62;0.00;0.00;0.62;;;;;29.80;1.00;;;;;;2284765;60;1124;-86
2021/08/21 07:23:03;21564.00;0.07;37.98;0.00;0.00;0.62;;;;;30.00;1.00;;;;;;2284702;60;1398;-86
2021/08/21 07:25:30;25274.00;0.08;44.40;0.00;0.00;0.62;;;;;30.50;1.00;;;;;;2284735;60;1092;-86
2021/08/21 07:27:57;80877.00;0.27;140.55;0.00;0.00;0.62;;;;;31.40;1.00;;;;;;2284727;60;1988;-86
2021/08/21 07:30:25;20830.00;0.07;36.71;0.00;0.00;0.62;;;;;31.50;1.00;;;;;;2284730;60;1154;-86
2021/08/21 07:32:52;0.00;0.00;0.62;0.00;0.00;0.62;;;;;31.90;1.00;;;;;;2284690;60;1286;-85
2021/08/21 07:35:19;0.00;0.00;0.62;0.00;0.00;0.62;;;;;31.90;1.00;;;;;;2284638;60;1114;-85
2021/08/21 07:37:46;0.00;0.00;0.62;0.00;0.00;0.62;;;;;32.20;1.00;;;;;;2284684;60;1090;-87
2021/08/21 07:40:14;32817.00;0.11;57.46;0.00;0.00;0.62;;;;;32.20;1.00;;;;;;2284654;60;1090;-87
2021/08/21 07:42:41;0.00;0.00;0.62;0.00;0.00;0.62;;;;;32.00;1.00;;;;;;2284650;60;1419;-87
2021/08/21 07:45:09;180872.00;0.60;312.99;29349.00;0.10;51.46;;;;;31.90;1.00;;;;;;2284402;60;1106;-87
2021/08/21 07:47:37;116092.00;0.39;201.34;0.00;0.00;0.62;;;;;31.50;1.00;;;;;;2283868;61;1994;-87
2021/08/21 07:50:05;25684.00;0.09;45.11;0.00;0.00;0.62;;;;;32.10;1.00;;;;;;2283295;61;1137;-86
2021/08/21 07:52:31;32453.00;0.11;56.83;0.00;0.00;0.62;;;;;32.30;1.00;;;;;;2282927;60;1793;-86
2021/08/21 07:54:58;159536.00;0.53;276.24;4119.00;0.01;7.76;;;;;32.90;1.00;;;;;;2283349;61;1136;-87
2021/08/21 07:57:27;776038.00;2.59;1339.37;19179.00;0.06;33.85;;;;;32.80;1.00;;;;;;2278888;61;1148;-86
2021/08/21 07:59:54;1324658.00;4.42;2317.30;98979.00;0.33;171.81;;;;;32.90;1.00;;;;;;2268768;61;1184;-87
2021/08/21 08:02:21;1267946.00;4.23;2213.56;163665.00;0.55;283.35;;;;;33.20;1.00;;;;;;2275015;61;1329;-87
2021/08/21 08:04:49;291966.00;0.97;504.11;64726.00;0.22;112.65;;;;;33.60;1.00;;;;;;2271107;61;1284;-86
2021/08/21 08:07:16;197435.00;0.66;341.51;64858.00;0.22;112.87;;;;;33.40;1.00;;;;;;2271134;61;1156;-87
2021/08/21 08:09:43;11068.00;0.04;19.80;0.00;0.00;0.62;;;;;33.80;1.00;;;;;;2267947;61;1939;-86
2021/08/21 08:12:10;0.00;0.00;0.62;0.00;0.00;0.62;;;;;33.30;1.00;;;;;;2268473;61;1465;-86
2021/08/21 08:14:37;22705.00;0.08;39.95;0.00;0.00;0.62;;;;;33.40;1.00;;;;;;2268345;61;1145;-86
2021/08/21 08:17:05;12746.00;0.04;22.71;0.00;0.00;0.62;;;;;33.70;1.00;;;;;;2279116;61;1103;-86
2021/08/21 08:19:32;368568.00;1.23;635.78;10682.00;0.04;19.13;;;;;33.90;1.00;;;;;;2279097;61;1152;-85
2021/08/21 08:22:00;619071.00;2.06;1067.16;15332.00;0.05;27.19;;;;;34.00;1.00;;;;;;2279696;61;1025;-86
2021/08/21 08:24:27;374119.00;1.25;645.32;0.00;0.00;0.62;;;;;33.60;1.00;;;;;;2284012;60;1076;-86
2021/08/21 08:26:54;279315.00;0.93;482.36;48856.00;0.16;85.21;;;;;32.20;1.00;;;;;;2284222;60;1458;-86
2021/08/21 08:29:21;94013.00;0.31;163.24;0.00;0.00;0.62;;;;;32.20;1.00;;;;;;2284317;60;2000;-87
2021/08/21 08:31:48;488847.00;1.63;842.62;65322.00;0.22;113.68;;;;;33.10;1.00;;;;;;2279498;61;990;-86
2021/08/21 08:34:15;174931.00;0.58;302.76;34930.00;0.12;61.12;;;;;32.90;1.00;;;;;;2279353;61;1388;-87
2021/08/21 08:36:42;90303.00;0.30;156.83;6730.00;0.02;12.28;;;;;33.00;1.00;;;;;;2272326;61;1144;-86
2021/08/21 08:39:10;362204.00;1.21;624.84;13155.00;0.04;23.41;;;;;33.00;1.00;;;;;;2272631;61;1176;-85
2021/08/21 08:41:38;547025.00;1.82;942.83;129453.00;0.43;224.39;;;;;32.90;1.00;;;;;;2270967;61;1105;-86
2021/08/21 08:44:10;351702.00;1.17;606.79;37001.00;0.12;64.70;;;;;33.30;1.00;;;;;;2271364;61;1442;-87
2021/08/21 08:46:38;327864.00;1.09;565.81;45341.00;0.15;79.13;;;;;33.50;1.00;;;;;;2271514;61;1021;-86
2021/08/21 08:49:05;449530.00;1.50;774.97;48553.00;0.16;84.68;;;;;33.10;1.00;;;;;;2266335;61;1989;-86
2021/08/21 08:51:33;431256.00;1.44;743.55;70692.00;0.24;122.96;;;;;32.60;1.00;;;;;;2279506;61;1129;-86
2021/08/21 08:54:00;331219.00;1.10;571.58;74406.00;0.25;129.37;;;;;32.70;1.00;;;;;;2279670;61;1423;-87
2021/08/21 08:56:28;289774.00;0.97;500.34;54512.00;0.18;94.99;;;;;32.90;1.00;;;;;;2279610;60;1085;-86
2021/08/21 08:58:55;166540.00;0.56;288.31;66338.00;0.22;115.43;;;;;32.90;1.00;;;;;;2280485;60;1022;-87
2021/08/21 09:01:22;219753.00;0.73;379.92;0.00;0.00;0.62;;;;;32.60;1.00;;;;;;2280566;60;1124;-87
2021/08/21 09:03:49;78114.00;0.26;135.78;0.00;0.00;0.62;;;;;32.70;1.00;;;;;;2284308;60;1426;-87
2021/08/21 09:06:34;145625.00;0.49;252.27;7281.00;0.02;13.24;;;;;32.30;1.00;;;;;;2284332;60;1167;-86
2021/08/21 09:09:11;130360.00;0.43;225.95;0.00;0.00;0.62;;;;;31.90;1.00;;;;;;2284272;60;1915;-87
2021/08/21 09:11:45;185921.00;0.62;321.69;65050.00;0.22;113.21;;;;;32.10;1.00;;;;;;2284254;60;1087;-87
2021/08/21 09:14:20;253729.00;0.85;438.36;37603.00;0.13;65.74;;;;;31.20;1.00;;;;;;2284336;60;1397;-88
2021/08/21 09:16:48;6842.00;0.02;12.48;0.00;0.00;0.62;;;;;31.30;1.00;;;;;;2284350;60;1063;-89
2021/08/21 09:19:24;51411.00;0.17;89.63;0.00;0.00;0.62;;;;;31.10;1.00;;;;;;2284280;61;1105;-88
2021/08/21 09:22:06;83726.00;0.28;145.47;0.00;0.00;0.62;;;;;30.50;1.00;;;;;;2284248;60;1495;-88
2021/08/21 09:24:34;0.00;0.00;0.62;0.00;0.00;0.62;;;;;30.50;1.00;;;;;;2284251;60;1179;-89
2021/08/21 09:27:17;19400.00;0.06;34.23;0.00;0.00;0.62;;;;;31.00;1.00;;;;;;2283734;60;1015;-87
2021/08/21 09:29:44;105608.00;0.35;183.25;0.00;0.00;0.62;;;;;31.00;1.00;;;;;;2283779;60;2000;-87
2021/08/21 09:32:12;0.00;0.00;0.62;0.00;0.00;0.62;;;;;30.90;1.00;;;;;;2283584;60;1390;-88
2021/08/21 09:34:39;0.00;0.00;0.62;0.00;0.00;0.62;;;;;30.70;1.00;;;;;;2283735;60;1081;-88
2021/08/21 09:37:09;48937.00;0.16;85.35;0.00;0.00;0.62;;;;;30.30;1.00;;;;;;2283840;60;1089;-88
2021/08/21 09:39:39;56999.00;0.19;99.29;0.00;0.00;0.62;;;;;30.10;1.00;;;;;;2283803;60;1188;-88
2021/08/21 09:42:08;9867.00;0.03;17.72;0.00;0.00;0.62;;;;;30.50;1.00;;;;;;2283781;60;1432;-90
2021/08/21 09:44:38;120595.00;0.40;209.11;14929.00;0.05;26.49;;;;;30.50;1.00;;;;;;2283927;60;1046;-88
2021/08/21 09:47:13;0.00;0.00;0.62;0.00;0.00;0.62;;;;;30.60;1.00;;;;;;2284359;60;1121;-89
2021/08/21 09:49:41;22155.00;0.07;39.00;0.00;0.00;0.62;;;;;30.50;1.00;;;;;;2284127;60;1990;-89
2021/08/21 09:52:11;53362.00;0.18;93.00;0.00;0.00;0.62;;;;;30.40;1.00;;;;;;2284238;60;1230;-89
2021/08/21 09:54:38;55955.00;0.19;97.48;0.00;0.00;0.62;;;;;30.50;1.00;;;;;;2284213;60;995;-89
2021/08/21 09:57:05;252531.00;0.84;436.30;29787.00;0.10;52.21;;;;;30.60;1.00;;;;;;2284230;60;1153;-89
2021/08/21 09:59:39;48494.00;0.16;84.58;0.00;0.00;0.62;;;;;30.70;1.00;;;;;;2284098;60;932;-89
2021/08/21 10:02:07;50703.00;0.17;88.40;0.00;0.00;0.62;;;;;31.10;1.00;;;;;;2284153;60;1437;-89
2021/08/21 10:04:35;183575.00;0.61;317.65;12430.00;0.04;22.16;;;;;30.70;1.00;;;;;;2284266;60;1112;-87
2021/08/21 10:07:04;187422.00;0.62;324.27;0.00;0.00;0.62;;;;;30.60;1.00;;;;;;2284160;60;1070;-89
2021/08/21 10:09:32;180249.00;0.60;311.92;28264.00;0.09;49.58;;;;;30.60;1.00;;;;;;2284454;60;1919;-89
2021/08/21 10:12:00;182505.00;0.61;315.80;4271.00;0.01;8.02;;;;;30.40;1.00;;;;;;2281064;60;976;-89
2021/08/21 10:14:28;322745.00;1.08;557.02;58542.00;0.20;101.96;;;;;30.40;1.00;;;;;;2284910;60;1547;-89
2021/08/21 10:16:57;352367.00;1.17;607.93;134999.00;0.45;233.95;;;;;30.60;1.00;;;;;;2284892;60;1136;-89
2021/08/21 10:19:25;253588.00;0.85;438.12;62475.00;0.21;108.76;;;;;30.60;1.00;;;;;;2281095;60;1068;-89